PWSweather.com
Personal Weather Stations
Station Observations
KAKFAIRB47
Old Steese Highway North, Fairbanks, AK 99712

Old Steese Highway NorthFairbanks, AK 99712

Lat: 64.885712, Lon: -147.640925

Elevation: 723

Station Type: Fine Offset (Wh 1080, etc)

Latest ConditionsUpdated 5:15:01 PM AKST Monday, Mar 27, 2017
Currently Today's Max Today's Min Today's Average
Temperature 26.8°F-2.9°C 31.8°F-0.1°C 5.4°F-14.8°C 17.4°F-8.1°C
Dew Point -2.7°F-19.3°C -0.3°F-17.9°C -16.3°F-26.8°C -10.0°F-23.3°C
Winds 6.0 mph N9.7 kmh N 11.4 mph N18.3 kmh N - 2.3 mph 3.7 kmh
Wind Gusts 15.2 mph24.5 kmh 15.9 mph25.6 kmh - -
Humidity 27% 43% 18% 29%
Pressure 28.88 in978.0 mb 29.15 in987.1 mb 28.88 in978.0 mb -
Precipitation - 0.32 in8.1 mm - -
Hour Temp Dew Point Humidity Winds Wind Gusts Pressure Precip Precip Rate Daily Precip Total
05:15 PM 26.8°F-2.9°C -2.7°F-19.3°C 27% 6.0 mph N9.7 kmh N 15.2 mph24.5 kmh 28.88 in978.0 mb 0.00 in0.0 mm 0.00 in0.0 mm 0.32 in8.1 mm
05:10 PM 27.1°F-2.7°C -3.1°F-19.5°C 26% 8.3 mph N13.4 kmh N 14.5 mph23.3 kmh 28.88 in978.0 mb 0.00 in0.0 mm 0.00 in0.0 mm 0.32 in8.1 mm
05:05 PM 27.3°F-2.6°C -3.0°F-19.4°C 26% 6.9 mph N11.1 kmh N 13.6 mph21.9 kmh 28.88 in978.0 mb 0.00 in0.0 mm 0.00 in0.0 mm 0.32 in8.1 mm
05:00 PM 27.5°F-2.5°C -2.8°F-19.3°C 26% 8.3 mph N13.4 kmh N 13.0 mph20.9 kmh 28.88 in978.0 mb 0.00 in0.0 mm 0.00 in0.0 mm 0.32 in8.1 mm
04:55 PM 27.5°F-2.5°C -2.8°F-19.3°C 26% 9.2 mph N14.8 kmh N 13.6 mph21.9 kmh 28.88 in978.0 mb 0.00 in0.0 mm 0.00 in0.0 mm 0.32 in8.1 mm
04:50 PM 27.7°F-2.4°C -2.7°F-19.3°C 26% 7.6 mph N12.2 kmh N 13.6 mph21.9 kmh 28.88 in978.0 mb 0.00 in0.0 mm 0.00 in0.0 mm 0.32 in8.1 mm
04:45 PM 27.7°F-2.4°C -2.7°F-19.3°C 26% 6.9 mph N11.1 kmh N 14.5 mph23.3 kmh 28.88 in978.0 mb 0.00 in0.0 mm 0.00 in0.0 mm 0.32 in8.1 mm
04:40 PM 27.9°F-2.3°C -3.3°F-19.6°C 25% 8.3 mph N13.4 kmh N 14.5 mph23.3 kmh 28.88 in978.0 mb 0.00 in0.0 mm 0.00 in0.0 mm 0.32 in8.1 mm
04:35 PM 28.0°F-2.2°C -3.2°F-19.6°C 25% 8.3 mph NNE13.4 kmh NNE 15.9 mph25.6 kmh 28.89 in978.3 mb 0.00 in0.0 mm 0.00 in0.0 mm 0.32 in8.1 mm
04:30 PM 28.2°F-2.1°C -3.9°F-19.9°C 24% 6.9 mph N11.1 kmh N 15.9 mph25.6 kmh 28.88 in978.0 mb 0.00 in0.0 mm 0.00 in0.0 mm 0.32 in8.1 mm
04:25 PM 28.6°F-1.9°C -0.3°F-17.9°C 28% 11.4 mph N18.3 kmh N 15.2 mph24.5 kmh 28.89 in978.3 mb 0.00 in0.0 mm 0.00 in0.0 mm 0.32 in8.1 mm
04:20 PM 28.6°F-1.9°C -1.1°F-18.4°C 27% 5.4 mph N8.7 kmh N 15.2 mph24.5 kmh 28.89 in978.3 mb 0.00 in0.0 mm 0.00 in0.0 mm 0.32 in8.1 mm
04:15 PM 28.8°F-1.8°C -0.9°F-18.3°C 27% 5.4 mph N8.7 kmh N 11.4 mph18.3 kmh 28.89 in978.3 mb 0.00 in0.0 mm 0.00 in0.0 mm 0.32 in8.1 mm
04:10 PM 29.1°F-1.6°C -0.6°F-18.1°C 27% 7.6 mph N12.2 kmh N 11.4 mph18.3 kmh 28.89 in978.3 mb 0.00 in0.0 mm 0.00 in0.0 mm 0.32 in8.1 mm
04:05 PM 29.7°F-1.3°C -1.8°F-18.8°C 25% 6.9 mph N11.1 kmh N 11.4 mph18.3 kmh 28.89 in978.3 mb 0.00 in0.0 mm 0.00 in0.0 mm 0.32 in8.1 mm
04:00 PM 30.2°F-1.0°C -2.2°F-19.0°C 24% 7.6 mph NNE12.2 kmh NNE 11.4 mph18.3 kmh 28.90 in978.7 mb 0.00 in0.0 mm 0.00 in0.0 mm 0.32 in8.1 mm
03:55 PM 30.9°F-0.6°C -0.7°F-18.2°C 25% 3.1 mph NNE5.0 kmh NNE 8.3 mph13.4 kmh 28.90 in978.7 mb 0.00 in0.0 mm 0.00 in0.0 mm 0.32 in8.1 mm
03:50 PM 30.4°F-0.9°C -1.2°F-18.4°C 25% 4.5 mph NNE7.2 kmh NNE 11.4 mph18.3 kmh 28.90 in978.7 mb 0.00 in0.0 mm 0.00 in0.0 mm 0.32 in8.1 mm
03:45 PM 30.4°F-0.9°C -1.2°F-18.4°C 25% 6.9 mph NNE11.1 kmh NNE 11.4 mph18.3 kmh 28.90 in978.7 mb 0.00 in0.0 mm 0.00 in0.0 mm 0.32 in8.1 mm
03:40 PM 30.0°F-1.1°C -1.5°F-18.6°C 25% 3.1 mph NNE5.0 kmh NNE 10.7 mph17.2 kmh 28.90 in978.7 mb 0.00 in0.0 mm 0.00 in0.0 mm 0.32 in8.1 mm
03:35 PM 29.7°F-1.3°C -1.8°F-18.8°C 25% 6.9 mph NE11.1 kmh NE 10.7 mph17.2 kmh 28.90 in978.7 mb 0.00 in0.0 mm 0.00 in0.0 mm 0.32 in8.1 mm
03:30 PM 30.6°F-0.8°C -1.9°F-18.8°C 24% 6.9 mph NE11.1 kmh NE 10.7 mph17.2 kmh 28.91 in979.0 mb 0.00 in0.0 mm 0.00 in0.0 mm 0.32 in8.1 mm
03:25 PM 30.7°F-0.7°C -1.7°F-18.7°C 24% 7.6 mph NE12.2 kmh NE 9.8 mph15.8 kmh 28.91 in979.0 mb 0.00 in0.0 mm 0.00 in0.0 mm 0.32 in8.1 mm
03:20 PM 30.7°F-0.7°C -1.7°F-18.7°C 24% 3.8 mph NE6.1 kmh NE 10.7 mph17.2 kmh 28.91 in979.0 mb 0.00 in0.0 mm 0.00 in0.0 mm 0.32 in8.1 mm
03:15 PM 30.9°F-0.6°C -2.5°F-19.2°C 23% 5.4 mph NE8.7 kmh NE 10.7 mph17.2 kmh 28.91 in979.0 mb 0.00 in0.0 mm 0.00 in0.0 mm 0.32 in8.1 mm
03:10 PM 31.8°F-0.1°C -1.7°F-18.7°C 23% 4.5 mph NE7.2 kmh NE 7.6 mph12.2 kmh 28.91 in979.0 mb 0.00 in0.0 mm 0.00 in0.0 mm 0.32 in8.1 mm
03:05 PM 30.9°F-0.6°C -1.6°F-18.7°C 24% 4.5 mph NE7.2 kmh NE 8.3 mph13.4 kmh 28.91 in979.0 mb 0.00 in0.0 mm 0.00 in0.0 mm 0.32 in8.1 mm
03:00 PM 31.3°F-0.4°C -1.3°F-18.5°C 24% 4.5 mph ENE7.2 kmh ENE 11.4 mph18.3 kmh 28.91 in979.0 mb 0.00 in0.0 mm 0.00 in0.0 mm 0.32 in8.1 mm
02:55 PM 30.4°F-0.9°C -2.9°F-19.4°C 23% 3.8 mph ENE6.1 kmh ENE 11.4 mph18.3 kmh 28.92 in979.3 mb 0.00 in0.0 mm 0.00 in0.0 mm 0.32 in8.1 mm
02:50 PM 30.0°F-1.1°C -1.5°F-18.6°C 25% 4.5 mph NE7.2 kmh NE 7.6 mph12.2 kmh 28.91 in979.0 mb 0.00 in0.0 mm 0.00 in0.0 mm 0.32 in8.1 mm
02:45 PM 30.0°F-1.1°C -2.3°F-19.1°C 24% 3.8 mph ENE6.1 kmh ENE 9.2 mph14.8 kmh 28.92 in979.3 mb 0.00 in0.0 mm 0.00 in0.0 mm 0.32 in8.1 mm
02:40 PM 30.4°F-0.9°C -2.0°F-18.9°C 24% 4.5 mph ENE7.2 kmh ENE 9.8 mph15.8 kmh 28.92 in979.3 mb 0.00 in0.0 mm 0.00 in0.0 mm 0.32 in8.1 mm
02:35 PM 29.8°F-1.2°C -1.6°F-18.7°C 25% 5.4 mph E8.7 kmh E 9.8 mph15.8 kmh 28.93 in979.7 mb 0.00 in0.0 mm 0.00 in0.0 mm 0.32 in8.1 mm
02:30 PM 29.7°F-1.3°C -1.8°F-18.8°C 25% 7.6 mph ENE12.2 kmh ENE 8.3 mph13.4 kmh 28.93 in979.7 mb 0.00 in0.0 mm 0.00 in0.0 mm 0.32 in8.1 mm
02:25 PM 28.8°F-1.8°C -2.6°F-19.2°C 25% 6.0 mph NE9.7 kmh NE 11.4 mph18.3 kmh 28.93 in979.7 mb 0.00 in0.0 mm 0.00 in0.0 mm 0.32 in8.1 mm
02:20 PM 28.4°F-2.0°C -2.9°F-19.4°C 25% 5.4 mph ENE8.7 kmh ENE 11.4 mph18.3 kmh 28.93 in979.7 mb 0.00 in0.0 mm 0.00 in0.0 mm 0.32 in8.1 mm
02:15 PM 28.2°F-2.1°C -6.6°F-21.4°C 21% 7.6 mph NE12.2 kmh NE 11.4 mph18.3 kmh 28.93 in979.7 mb 0.00 in0.0 mm 0.00 in0.0 mm 0.32 in8.1 mm
02:10 PM 28.6°F-1.9°C -2.7°F-19.3°C 25% 6.0 mph NE9.7 kmh NE 9.2 mph14.8 kmh 28.94 in980.0 mb 0.00 in0.0 mm 0.00 in0.0 mm 0.32 in8.1 mm
02:05 PM 28.4°F-2.0°C -2.9°F-19.4°C 25% 5.4 mph NE8.7 kmh NE 9.8 mph15.8 kmh 28.94 in980.0 mb 0.00 in0.0 mm 0.00 in0.0 mm 0.32 in8.1 mm
02:00 PM 29.1°F-1.6°C -2.3°F-19.1°C 25% 3.1 mph NE5.0 kmh NE 9.8 mph15.8 kmh 28.94 in980.0 mb 0.00 in0.0 mm 0.00 in0.0 mm 0.32 in8.1 mm
01:55 PM 28.4°F-2.0°C -2.9°F-19.4°C 25% 6.9 mph NE11.1 kmh NE 13.0 mph20.9 kmh 28.94 in980.0 mb 0.00 in0.0 mm 0.00 in0.0 mm 0.32 in8.1 mm
01:50 PM 28.0°F-2.2°C -6.8°F-21.6°C 21% 4.5 mph NE7.2 kmh NE 13.0 mph20.9 kmh 28.94 in980.0 mb 0.00 in0.0 mm 0.00 in0.0 mm 0.32 in8.1 mm
01:45 PM 27.7°F-2.4°C -7.1°F-21.7°C 21% 9.2 mph NE14.8 kmh NE 15.2 mph24.5 kmh 28.94 in980.0 mb 0.00 in0.0 mm 0.00 in0.0 mm 0.32 in8.1 mm
01:40 PM 27.3°F-2.6°C -8.4°F-22.4°C 20% 6.0 mph NE9.7 kmh NE 15.2 mph24.5 kmh 28.95 in980.4 mb 0.00 in0.0 mm 0.00 in0.0 mm 0.32 in8.1 mm
01:35 PM 27.5°F-2.5°C -8.2°F-22.3°C 20% 9.2 mph NE14.8 kmh NE 11.4 mph18.3 kmh 28.95 in980.4 mb 0.00 in0.0 mm 0.00 in0.0 mm 0.32 in8.1 mm
01:30 PM 27.9°F-2.3°C -6.9°F-21.6°C 21% 7.6 mph NE12.2 kmh NE 11.4 mph18.3 kmh 28.95 in980.4 mb 0.00 in0.0 mm 0.00 in0.0 mm 0.32 in8.1 mm
01:25 PM 27.7°F-2.4°C -7.1°F-21.7°C 21% 6.9 mph NE11.1 kmh NE 10.7 mph17.2 kmh 28.95 in980.4 mb 0.00 in0.0 mm 0.00 in0.0 mm 0.32 in8.1 mm
01:20 PM 27.9°F-2.3°C -6.9°F-21.6°C 21% 5.4 mph NE8.7 kmh NE 9.2 mph14.8 kmh 28.95 in980.4 mb 0.00 in0.0 mm 0.00 in0.0 mm 0.32 in8.1 mm
01:15 PM 28.0°F-2.2°C -6.8°F-21.6°C 21% 3.1 mph NNE5.0 kmh NNE 11.4 mph18.3 kmh 28.95 in980.4 mb 0.00 in0.0 mm 0.00 in0.0 mm 0.32 in8.1 mm
01:10 PM 27.3°F-2.6°C -8.4°F-22.4°C 20% 5.4 mph NE8.7 kmh NE 11.4 mph18.3 kmh 28.95 in980.4 mb 0.00 in0.0 mm 0.00 in0.0 mm 0.32 in8.1 mm
01:05 PM 28.0°F-2.2°C -7.8°F-22.1°C 20% 4.5 mph NE7.2 kmh NE 8.3 mph13.4 kmh 28.96 in980.7 mb 0.00 in0.0 mm 0.00 in0.0 mm 0.32 in8.1 mm
01:00 PM 27.9°F-2.3°C -7.9°F-22.2°C 20% 4.5 mph NE7.2 kmh NE 12.1 mph19.5 kmh 28.95 in980.4 mb 0.00 in0.0 mm 0.00 in0.0 mm 0.32 in8.1 mm
12:55 PM 27.7°F-2.4°C -8.1°F-22.3°C 20% 6.9 mph NE11.1 kmh NE 13.0 mph20.9 kmh 28.96 in980.7 mb 0.00 in0.0 mm 0.00 in0.0 mm 0.32 in8.1 mm
12:50 PM 27.3°F-2.6°C -9.4°F-23.0°C 19% 8.3 mph NE13.4 kmh NE 13.0 mph20.9 kmh 28.96 in980.7 mb 0.00 in0.0 mm 0.00 in0.0 mm 0.32 in8.1 mm
12:45 PM 27.7°F-2.4°C -9.1°F-22.8°C 19% 6.0 mph E9.7 kmh E 9.8 mph15.8 kmh 28.96 in980.7 mb 0.00 in0.0 mm 0.00 in0.0 mm 0.32 in8.1 mm
12:40 PM 27.7°F-2.4°C -9.1°F-22.8°C 19% 5.4 mph ENE8.7 kmh ENE 9.8 mph15.8 kmh 28.96 in980.7 mb 0.00 in0.0 mm 0.00 in0.0 mm 0.32 in8.1 mm
12:35 PM 28.4°F-2.0°C -3.7°F-19.8°C 24% 4.5 mph E7.2 kmh E 9.8 mph15.8 kmh 28.96 in980.7 mb 0.00 in0.0 mm 0.00 in0.0 mm 0.32 in8.1 mm
12:30 PM 27.9°F-2.3°C -7.9°F-22.2°C 20% 3.8 mph ENE6.1 kmh ENE 9.8 mph15.8 kmh 28.97 in981.0 mb 0.00 in0.0 mm 0.00 in0.0 mm 0.32 in8.1 mm
12:25 PM 27.3°F-2.6°C -9.4°F-23.0°C 19% 6.0 mph NE9.7 kmh NE 9.8 mph15.8 kmh 28.97 in981.0 mb 0.00 in0.0 mm 0.00 in0.0 mm 0.32 in8.1 mm
12:20 PM 27.1°F-2.7°C -8.5°F-22.5°C 20% 3.8 mph E6.1 kmh E 11.4 mph18.3 kmh 28.97 in981.0 mb 0.00 in0.0 mm 0.00 in0.0 mm 0.32 in8.1 mm
12:15 PM 27.1°F-2.7°C -8.5°F-22.5°C 20% 4.5 mph E7.2 kmh E 12.1 mph19.5 kmh 28.97 in981.0 mb 0.00 in0.0 mm 0.00 in0.0 mm 0.32 in8.1 mm
12:10 PM 27.1°F-2.7°C -9.6°F-23.1°C 19% 1.6 mph ENE2.6 kmh ENE 12.1 mph19.5 kmh 28.97 in981.0 mb 0.00 in0.0 mm 0.00 in0.0 mm 0.32 in8.1 mm
12:05 PM 27.7°F-2.4°C -8.1°F-22.3°C 20% 3.8 mph E6.1 kmh E 6.9 mph11.1 kmh 28.97 in981.0 mb 0.00 in0.0 mm 0.00 in0.0 mm 0.32 in8.1 mm
12:00 PM 27.5°F-2.5°C -8.2°F-22.3°C 20% 2.2 mph ENE3.5 kmh ENE 6.9 mph11.1 kmh 28.98 in981.4 mb 0.00 in0.0 mm 0.00 in0.0 mm 0.32 in8.1 mm
11:55 AM 26.8°F-2.9°C -9.9°F-23.3°C 19% 3.1 mph NE5.0 kmh NE 8.3 mph13.4 kmh 28.98 in981.4 mb 0.00 in0.0 mm 0.00 in0.0 mm 0.32 in8.1 mm
11:50 AM 27.0°F-2.8°C -9.7°F-23.2°C 19% 2.2 mph NE3.5 kmh NE 8.3 mph13.4 kmh 28.98 in981.4 mb 0.00 in0.0 mm 0.00 in0.0 mm 0.32 in8.1 mm
11:45 AM 26.2°F-3.2°C -9.3°F-22.9°C 20% 3.1 mph E5.0 kmh E 7.6 mph12.2 kmh 28.98 in981.4 mb 0.00 in0.0 mm 0.00 in0.0 mm 0.32 in8.1 mm
11:40 AM 27.0°F-2.8°C -9.7°F-23.2°C 19% 3.8 mph ESE6.1 kmh ESE 6.9 mph11.1 kmh 28.98 in981.4 mb 0.00 in0.0 mm 0.00 in0.0 mm 0.32 in8.1 mm
11:35 AM 27.0°F-2.8°C -9.7°F-23.2°C 19% 3.1 mph E5.0 kmh E 6.9 mph11.1 kmh 28.98 in981.4 mb 0.00 in0.0 mm 0.00 in0.0 mm 0.32 in8.1 mm
11:30 AM 27.0°F-2.8°C -9.7°F-23.2°C 19% 2.2 mph E3.5 kmh E 8.3 mph13.4 kmh 28.98 in981.4 mb 0.00 in0.0 mm 0.00 in0.0 mm 0.32 in8.1 mm
11:25 AM 26.8°F-2.9°C -11.0°F-23.9°C 18% 3.1 mph E5.0 kmh E 8.3 mph13.4 kmh 28.99 in981.7 mb 0.00 in0.0 mm 0.00 in0.0 mm 0.32 in8.1 mm
11:20 AM 26.1°F-3.3°C -10.5°F-23.6°C 19% 3.1 mph E5.0 kmh E 7.6 mph12.2 kmh 29.00 in982.1 mb 0.00 in0.0 mm 0.00 in0.0 mm 0.32 in8.1 mm
11:15 AM 26.4°F-3.1°C -10.2°F-23.4°C 19% 3.1 mph E5.0 kmh E 5.4 mph8.7 kmh 29.00 in982.1 mb 0.00 in0.0 mm 0.00 in0.0 mm 0.32 in8.1 mm
11:10 AM 26.6°F-3.0°C -10.0°F-23.3°C 19% 2.2 mph ENE3.5 kmh ENE 8.3 mph13.4 kmh 29.00 in982.1 mb 0.00 in0.0 mm 0.00 in0.0 mm 0.32 in8.1 mm
11:05 AM 26.6°F-3.0°C -11.1°F-23.9°C 18% 2.2 mph E3.5 kmh E 8.3 mph13.4 kmh 29.00 in982.1 mb 0.00 in0.0 mm 0.00 in0.0 mm 0.32 in8.1 mm
11:00 AM 26.6°F-3.0°C -11.1°F-23.9°C 18% 0.7 mph ESE1.1 kmh ESE 7.6 mph12.2 kmh 29.00 in982.1 mb 0.00 in0.0 mm 0.00 in0.0 mm 0.32 in8.1 mm
10:55 AM 27.0°F-2.8°C -10.8°F-23.8°C 18% 5.4 mph NE8.7 kmh NE 7.6 mph12.2 kmh 29.00 in982.1 mb 0.00 in0.0 mm 0.00 in0.0 mm 0.32 in8.1 mm
10:50 AM 27.5°F-2.5°C -10.4°F-23.6°C 18% 1.6 mph NE2.6 kmh NE 7.6 mph12.2 kmh 29.00 in982.1 mb 0.00 in0.0 mm 0.00 in0.0 mm 0.32 in8.1 mm
10:45 AM 26.6°F-3.0°C -11.1°F-23.9°C 18% 2.2 mph NE3.5 kmh NE 7.6 mph12.2 kmh 29.00 in982.1 mb 0.00 in0.0 mm 0.00 in0.0 mm 0.32 in8.1 mm
10:40 AM 25.2°F-3.8°C -11.2°F-24.0°C 19% 2.2 mph NE3.5 kmh NE 6.9 mph11.1 kmh 29.01 in982.4 mb 0.00 in0.0 mm 0.00 in0.0 mm 0.32 in8.1 mm
10:35 AM 26.6°F-3.0°C -11.1°F-23.9°C 18% 0.7 mph ENE1.1 kmh ENE 5.4 mph8.7 kmh 29.01 in982.4 mb 0.00 in0.0 mm 0.00 in0.0 mm 0.32 in8.1 mm
10:30 AM 25.5°F-3.6°C -10.9°F-23.8°C 19% Calm Calm 3.8 mph6.1 kmh 29.01 in982.4 mb 0.00 in0.0 mm 0.00 in0.0 mm 0.32 in8.1 mm
10:25 AM 25.2°F-3.8°C -11.2°F-24.0°C 19% 0.7 mph N1.1 kmh N 3.8 mph6.1 kmh 29.02 in982.7 mb 0.00 in0.0 mm 0.00 in0.0 mm 0.32 in8.1 mm
10:20 AM 29.8°F-1.2°C -4.3°F-20.2°C 22% Calm Calm 1.6 mph2.6 kmh 29.02 in982.7 mb 0.00 in0.0 mm 0.00 in0.0 mm 0.32 in8.1 mm
10:15 AM 25.9°F-3.4°C -10.6°F-23.7°C 19% Calm Calm -- 29.02 in982.7 mb 0.00 in0.0 mm 0.00 in0.0 mm 0.32 in8.1 mm
10:10 AM 29.5°F-1.4°C -3.7°F-19.8°C 23% Calm Calm -- 29.02 in982.7 mb 0.00 in0.0 mm 0.00 in0.0 mm 0.32 in8.1 mm
10:05 AM 25.2°F-3.8°C -9.2°F-22.9°C 21% Calm Calm -- 29.02 in982.7 mb 0.00 in0.0 mm 0.00 in0.0 mm 0.32 in8.1 mm
10:00 AM 22.1°F-5.5°C -10.0°F-23.3°C 23% Calm Calm 1.6 mph2.6 kmh 29.02 in982.7 mb 0.00 in0.0 mm 0.00 in0.0 mm 0.32 in8.1 mm
09:55 AM 21.4°F-5.9°C -10.6°F-23.7°C 23% Calm Calm 3.1 mph5.0 kmh 29.03 in983.1 mb 0.00 in0.0 mm 0.00 in0.0 mm 0.32 in8.1 mm
09:50 AM 19.0°F-7.2°C -15.3°F-26.3°C 20% 0.7 mph W1.1 kmh W 3.1 mph5.0 kmh 29.03 in983.1 mb 0.00 in0.0 mm 0.00 in0.0 mm 0.32 in8.1 mm
09:45 AM 19.6°F-6.9°C -11.3°F-24.1°C 24% 1.6 mph W2.6 kmh W 3.1 mph5.0 kmh 29.03 in983.1 mb 0.00 in0.0 mm 0.00 in0.0 mm 0.32 in8.1 mm
09:40 AM 19.4°F-7.0°C -10.6°F-23.7°C 25% 1.6 mph W2.6 kmh W 3.1 mph5.0 kmh 29.03 in983.1 mb 0.00 in0.0 mm 0.00 in0.0 mm 0.32 in8.1 mm
09:35 AM 18.9°F-7.3°C -14.5°F-25.8°C 21% 0.7 mph W1.1 kmh W 3.1 mph5.0 kmh 29.03 in983.1 mb 0.00 in0.0 mm 0.00 in0.0 mm 0.32 in8.1 mm
09:30 AM 18.3°F-7.6°C -14.1°F-25.6°C 22% 1.6 mph W2.6 kmh W 3.1 mph5.0 kmh 29.03 in983.1 mb 0.00 in0.0 mm 0.00 in0.0 mm 0.32 in8.1 mm
09:25 AM 23.5°F-4.7°C -4.7°F-20.4°C 28% Calm Calm -- 29.03 in983.1 mb 0.00 in0.0 mm 0.00 in0.0 mm 0.32 in8.1 mm
09:20 AM 18.0°F-7.8°C -11.0°F-23.9°C 26% Calm Calm -- 29.03 in983.1 mb 0.00 in0.0 mm 0.00 in0.0 mm 0.32 in8.1 mm
09:15 AM 15.1°F-9.4°C -13.5°F-25.3°C 26% Calm Calm 1.6 mph2.6 kmh 29.04 in983.4 mb 0.00 in0.0 mm 0.00 in0.0 mm 0.32 in8.1 mm
09:10 AM 15.4°F-9.2°C -13.2°F-25.1°C 26% Calm Calm 1.6 mph2.6 kmh 29.04 in983.4 mb 0.00 in0.0 mm 0.00 in0.0 mm 0.32 in8.1 mm
09:05 AM 15.8°F-9.0°C -13.7°F-25.4°C 25% 0.7 mph E1.1 kmh E 2.2 mph3.5 kmh 29.04 in983.4 mb 0.00 in0.0 mm 0.00 in0.0 mm 0.32 in8.1 mm
09:00 AM 16.5°F-8.6°C -13.1°F-25.1°C 25% Calm Calm 2.2 mph3.5 kmh 29.04 in983.4 mb 0.00 in0.0 mm 0.00 in0.0 mm 0.32 in8.1 mm
08:55 AM 15.6°F-9.1°C -12.3°F-24.6°C 27% Calm Calm 2.2 mph3.5 kmh 29.04 in983.4 mb 0.00 in0.0 mm 0.00 in0.0 mm 0.32 in8.1 mm
08:50 AM 16.2°F-8.8°C -12.6°F-24.8°C 26% Calm Calm 2.2 mph3.5 kmh 29.04 in983.4 mb 0.00 in0.0 mm 0.00 in0.0 mm 0.32 in8.1 mm
08:45 AM 16.7°F-8.5°C -9.3°F-22.9°C 30% Calm Calm 2.2 mph3.5 kmh 29.04 in983.4 mb 0.00 in0.0 mm 0.00 in0.0 mm 0.32 in8.1 mm
08:40 AM 15.1°F-9.4°C -9.4°F-23.0°C 32% 0.7 mph SE1.1 kmh SE 3.1 mph5.0 kmh 29.04 in983.4 mb 0.00 in0.0 mm 0.00 in0.0 mm 0.32 in8.1 mm
08:35 AM 14.2°F-9.9°C -8.4°F-22.4°C 35% 0.7 mph ESE1.1 kmh ESE 3.1 mph5.0 kmh 29.04 in983.4 mb 0.00 in0.0 mm 0.00 in0.0 mm 0.32 in8.1 mm
08:30 AM 12.7°F-10.7°C -7.4°F-21.9°C 39% Calm Calm 2.2 mph3.5 kmh 29.05 in983.7 mb 0.00 in0.0 mm 0.00 in0.0 mm 0.32 in8.1 mm
08:25 AM 11.8°F-11.2°C -6.7°F-21.5°C 42% Calm Calm 2.2 mph3.5 kmh 29.05 in983.7 mb 0.00 in0.0 mm 0.00 in0.0 mm 0.32 in8.1 mm
08:20 AM 10.4°F-12.0°C -7.6°F-22.0°C 43% Calm Calm -- 29.05 in983.7 mb 0.00 in0.0 mm 0.00 in0.0 mm 0.32 in8.1 mm
08:15 AM 9.5°F-12.5°C -10.4°F-23.6°C 39% Calm Calm -- 29.05 in983.7 mb 0.00 in0.0 mm 0.00 in0.0 mm 0.32 in8.1 mm
08:10 AM 8.8°F-12.9°C -11.0°F-23.9°C 39% Calm Calm -- 29.06 in984.1 mb 0.00 in0.0 mm 0.00 in0.0 mm 0.32 in8.1 mm
08:05 AM 8.4°F-13.1°C -10.3°F-23.5°C 41% Calm Calm -- 29.05 in983.7 mb 0.00 in0.0 mm 0.00 in0.0 mm 0.32 in8.1 mm
08:00 AM 8.1°F-13.3°C -10.7°F-23.7°C 41% Calm Calm -- 29.05 in983.7 mb 0.00 in0.0 mm 0.00 in0.0 mm 0.32 in8.1 mm
07:55 AM 7.5°F-13.6°C -11.1°F-23.9°C 41% Calm Calm -- 29.06 in984.1 mb 0.00 in0.0 mm 0.00 in0.0 mm 0.32 in8.1 mm
07:50 AM 7.0°F-13.9°C -11.6°F-24.2°C 41% Calm Calm -- 29.06 in984.1 mb 0.00 in0.0 mm 0.00 in0.0 mm 0.32 in8.1 mm
07:45 AM 6.6°F-14.1°C -11.5°F-24.2°C 42% Calm Calm -- 29.05 in983.7 mb 0.00 in0.0 mm 0.00 in0.0 mm 0.32 in8.1 mm
07:40 AM 6.6°F-14.1°C -11.5°F-24.2°C 42% Calm Calm -- 29.06 in984.1 mb 0.00 in0.0 mm 0.00 in0.0 mm 0.32 in8.1 mm
07:35 AM 6.6°F-14.1°C -11.5°F-24.2°C 42% Calm Calm -- 29.06 in984.1 mb 0.00 in0.0 mm 0.00 in0.0 mm 0.32 in8.1 mm
07:30 AM 6.4°F-14.2°C -12.1°F-24.5°C 41% Calm Calm -- 29.06 in984.1 mb 0.00 in0.0 mm 0.00 in0.0 mm 0.32 in8.1 mm
07:25 AM 6.6°F-14.1°C -12.0°F-24.4°C 41% Calm Calm -- 29.06 in984.1 mb 0.00 in0.0 mm 0.00 in0.0 mm 0.32 in8.1 mm
07:20 AM 7.9°F-13.4°C -11.3°F-24.1°C 40% Calm Calm -- 29.07 in984.4 mb 0.00 in0.0 mm 0.00 in0.0 mm 0.32 in8.1 mm
07:15 AM 7.9°F-13.4°C -10.8°F-23.8°C 41% Calm Calm 1.6 mph2.6 kmh 29.07 in984.4 mb 0.00 in0.0 mm 0.00 in0.0 mm 0.32 in8.1 mm
07:10 AM 7.7°F-13.5°C -11.0°F-23.9°C 41% Calm Calm 1.6 mph2.6 kmh 29.07 in984.4 mb 0.00 in0.0 mm 0.00 in0.0 mm 0.32 in8.1 mm
07:05 AM 7.7°F-13.5°C -11.0°F-23.9°C 41% Calm Calm -- 29.08 in984.8 mb 0.00 in0.0 mm 0.00 in0.0 mm 0.32 in8.1 mm
07:00 AM 7.5°F-13.6°C -11.1°F-23.9°C 41% Calm Calm -- 29.08 in984.8 mb 0.00 in0.0 mm 0.00 in0.0 mm 0.32 in8.1 mm
06:55 AM 7.2°F-13.8°C -11.5°F-24.2°C 41% Calm Calm -- 29.08 in984.8 mb 0.00 in0.0 mm 0.00 in0.0 mm 0.32 in8.1 mm
06:50 AM 6.3°F-14.3°C -11.8°F-24.3°C 42% Calm Calm 2.2 mph3.5 kmh 29.08 in984.8 mb 0.00 in0.0 mm 0.00 in0.0 mm 0.32 in8.1 mm
06:45 AM 6.8°F-14.0°C -11.8°F-24.3°C 41% Calm Calm 2.2 mph3.5 kmh 29.08 in984.8 mb 0.00 in0.0 mm 0.00 in0.0 mm 0.32 in8.1 mm
06:40 AM 6.4°F-14.2°C -11.6°F-24.2°C 42% Calm Calm -- 29.08 in984.8 mb 0.00 in0.0 mm 0.00 in0.0 mm 0.32 in8.1 mm
06:35 AM 6.3°F-14.3°C -11.8°F-24.3°C 42% Calm Calm 3.1 mph5.0 kmh 29.08 in984.8 mb 0.00 in0.0 mm 0.00 in0.0 mm 0.32 in8.1 mm
06:30 AM 6.3°F-14.3°C -11.8°F-24.3°C 42% Calm Calm 3.1 mph5.0 kmh 29.09 in985.1 mb 0.00 in0.0 mm 0.00 in0.0 mm 0.00 in0.0 mm
06:25 AM 6.6°F-14.1°C -11.5°F-24.2°C 42% 1.6 mph SE2.6 kmh SE 3.1 mph5.0 kmh 29.09 in985.1 mb 0.00 in0.0 mm 0.00 in0.0 mm 0.00 in0.0 mm
06:20 AM 7.7°F-13.5°C -10.5°F-23.6°C 42% Calm Calm 2.2 mph3.5 kmh 29.09 in985.1 mb 0.00 in0.0 mm 0.00 in0.0 mm 0.00 in0.0 mm
06:15 AM 6.1°F-14.4°C -12.0°F-24.4°C 42% Calm Calm 1.6 mph2.6 kmh 29.09 in985.1 mb 0.00 in0.0 mm 0.00 in0.0 mm 0.00 in0.0 mm
06:10 AM 5.4°F-14.8°C -13.1°F-25.1°C 41% 0.7 mph E1.1 kmh E 1.6 mph2.6 kmh 29.09 in985.1 mb 0.00 in0.0 mm 0.00 in0.0 mm 0.00 in0.0 mm
06:05 AM 5.5°F-14.7°C -12.9°F-24.9°C 41% Calm Calm 1.6 mph2.6 kmh 29.09 in985.1 mb 0.00 in0.0 mm 0.00 in0.0 mm 0.00 in0.0 mm
06:00 AM 6.1°F-14.4°C -12.9°F-24.9°C 40% Calm Calm -- 29.09 in985.1 mb 0.00 in0.0 mm 0.00 in0.0 mm 0.00 in0.0 mm
05:55 AM 6.3°F-14.3°C -12.8°F-24.9°C 40% Calm Calm 1.6 mph2.6 kmh 29.10 in985.4 mb 0.00 in0.0 mm 0.00 in0.0 mm 0.00 in0.0 mm
05:50 AM 7.0°F-13.9°C -12.6°F-24.8°C 39% Calm Calm 2.2 mph3.5 kmh 29.10 in985.4 mb 0.00 in0.0 mm 0.00 in0.0 mm 0.00 in0.0 mm
05:45 AM 7.2°F-13.8°C -12.5°F-24.7°C 39% 0.7 mph SE1.1 kmh SE 2.2 mph3.5 kmh 29.09 in985.1 mb 0.00 in0.0 mm 0.00 in0.0 mm 0.00 in0.0 mm
05:40 AM 6.8°F-14.0°C -14.4°F-25.8°C 36% Calm Calm 1.6 mph2.6 kmh 29.09 in985.1 mb 0.00 in0.0 mm 0.00 in0.0 mm 0.00 in0.0 mm
05:35 AM 7.9°F-13.4°C -13.4°F-25.2°C 36% Calm Calm 2.2 mph3.5 kmh 29.10 in985.4 mb 0.00 in0.0 mm 0.00 in0.0 mm 0.00 in0.0 mm
05:30 AM 8.1°F-13.3°C -13.2°F-25.1°C 36% Calm Calm 2.2 mph3.5 kmh 29.10 in985.4 mb 0.00 in0.0 mm 0.00 in0.0 mm 0.00 in0.0 mm
05:25 AM 8.2°F-13.2°C -13.1°F-25.1°C 36% 0.7 mph SE1.1 kmh SE 1.6 mph2.6 kmh 29.10 in985.4 mb 0.00 in0.0 mm 0.00 in0.0 mm 0.00 in0.0 mm
05:20 AM 8.1°F-13.3°C -13.8°F-25.4°C 35% Calm Calm 2.2 mph3.5 kmh 29.10 in985.4 mb 0.00 in0.0 mm 0.00 in0.0 mm 0.00 in0.0 mm
05:15 AM 8.4°F-13.1°C -12.9°F-24.9°C 36% 0.7 mph SE1.1 kmh SE 2.2 mph3.5 kmh 29.10 in985.4 mb 0.00 in0.0 mm 0.00 in0.0 mm 0.00 in0.0 mm
05:10 AM 8.2°F-13.2°C -13.1°F-25.1°C 36% 0.7 mph SE1.1 kmh SE 3.1 mph5.0 kmh 29.10 in985.4 mb 0.00 in0.0 mm 0.00 in0.0 mm 0.00 in0.0 mm
05:05 AM 8.2°F-13.2°C -13.1°F-25.1°C 36% 0.7 mph SE1.1 kmh SE 3.1 mph5.0 kmh 29.10 in985.4 mb 0.00 in0.0 mm 0.00 in0.0 mm 0.00 in0.0 mm
05:00 AM 7.9°F-13.4°C -13.4°F-25.2°C 36% 1.6 mph SE2.6 kmh SE 3.1 mph5.0 kmh 29.11 in985.8 mb 0.00 in0.0 mm 0.00 in0.0 mm 0.00 in0.0 mm
04:55 AM 8.6°F-13.0°C -13.3°F-25.2°C 35% Calm Calm 2.2 mph3.5 kmh 29.11 in985.8 mb 0.00 in0.0 mm 0.00 in0.0 mm 0.00 in0.0 mm
04:50 AM 8.1°F-13.3°C -13.2°F-25.1°C 36% 0.7 mph SE1.1 kmh SE 2.2 mph3.5 kmh 29.11 in985.8 mb 0.00 in0.0 mm 0.00 in0.0 mm 0.00 in0.0 mm
04:45 AM 8.1°F-13.3°C -13.8°F-25.4°C 35% Calm Calm 1.6 mph2.6 kmh 29.11 in985.8 mb 0.00 in0.0 mm 0.00 in0.0 mm 0.00 in0.0 mm
04:40 AM 8.4°F-13.1°C -13.5°F-25.3°C 35% Calm Calm 1.6 mph2.6 kmh 29.11 in985.8 mb 0.00 in0.0 mm 0.00 in0.0 mm 0.00 in0.0 mm
04:35 AM 8.1°F-13.3°C -13.8°F-25.4°C 35% Calm Calm 2.2 mph3.5 kmh 29.11 in985.8 mb 0.00 in0.0 mm 0.00 in0.0 mm 0.00 in0.0 mm
04:30 AM 8.6°F-13.0°C -13.3°F-25.2°C 35% Calm Calm 2.2 mph3.5 kmh 29.11 in985.8 mb 0.00 in0.0 mm 0.00 in0.0 mm 0.00 in0.0 mm
04:25 AM 8.1°F-13.3°C -13.8°F-25.4°C 35% 0.7 mph SE1.1 kmh SE 2.2 mph3.5 kmh 29.11 in985.8 mb 0.00 in0.0 mm 0.00 in0.0 mm 0.00 in0.0 mm
04:20 AM 8.4°F-13.1°C -13.5°F-25.3°C 35% Calm Calm 1.6 mph2.6 kmh 29.12 in986.1 mb 0.00 in0.0 mm 0.00 in0.0 mm 0.00 in0.0 mm
04:15 AM 8.4°F-13.1°C -13.5°F-25.3°C 35% Calm Calm 3.1 mph5.0 kmh 29.12 in986.1 mb 0.00 in0.0 mm 0.00 in0.0 mm 0.00 in0.0 mm
04:10 AM 8.6°F-13.0°C -13.3°F-25.2°C 35% 0.7 mph SE1.1 kmh SE 3.1 mph5.0 kmh 29.12 in986.1 mb 0.00 in0.0 mm 0.00 in0.0 mm 0.00 in0.0 mm
04:05 AM 8.2°F-13.2°C -13.1°F-25.1°C 36% Calm Calm 3.1 mph5.0 kmh 29.12 in986.1 mb 0.00 in0.0 mm 0.00 in0.0 mm 0.00 in0.0 mm
04:00 AM 8.2°F-13.2°C -13.1°F-25.1°C 36% Calm Calm 3.1 mph5.0 kmh 29.12 in986.1 mb 0.00 in0.0 mm 0.00 in0.0 mm 0.00 in0.0 mm
03:55 AM 8.6°F-13.0°C -13.3°F-25.2°C 35% Calm Calm 2.2 mph3.5 kmh 29.12 in986.1 mb 0.00 in0.0 mm 0.00 in0.0 mm 0.00 in0.0 mm
03:50 AM 8.4°F-13.1°C -13.5°F-25.3°C 35% Calm Calm 2.2 mph3.5 kmh 29.12 in986.1 mb 0.00 in0.0 mm 0.00 in0.0 mm 0.00 in0.0 mm
03:45 AM 8.4°F-13.1°C -12.9°F-24.9°C 36% 0.7 mph SE1.1 kmh SE 3.1 mph5.0 kmh 29.12 in986.1 mb 0.00 in0.0 mm 0.00 in0.0 mm 0.00 in0.0 mm
03:40 AM 8.1°F-13.3°C -13.2°F-25.1°C 36% 0.7 mph ESE1.1 kmh ESE 3.1 mph5.0 kmh 29.13 in986.5 mb 0.00 in0.0 mm 0.00 in0.0 mm 0.00 in0.0 mm
03:35 AM 7.5°F-13.6°C -14.3°F-25.7°C 35% 0.7 mph ESE1.1 kmh ESE 2.2 mph3.5 kmh 29.12 in986.1 mb 0.00 in0.0 mm 0.00 in0.0 mm 0.00 in0.0 mm
03:30 AM 8.4°F-13.1°C -13.5°F-25.3°C 35% Calm Calm 3.1 mph5.0 kmh 29.13 in986.5 mb 0.00 in0.0 mm 0.00 in0.0 mm 0.00 in0.0 mm
03:25 AM 8.1°F-13.3°C -13.8°F-25.4°C 35% 1.6 mph SE2.6 kmh SE 3.1 mph5.0 kmh 29.13 in986.5 mb 0.00 in0.0 mm 0.00 in0.0 mm 0.00 in0.0 mm
03:20 AM 7.9°F-13.4°C -14.5°F-25.8°C 34% Calm Calm 2.2 mph3.5 kmh 29.13 in986.5 mb 0.00 in0.0 mm 0.00 in0.0 mm 0.00 in0.0 mm
03:15 AM 8.2°F-13.2°C -14.2°F-25.7°C 34% 1.6 mph SSE2.6 kmh SSE 2.2 mph3.5 kmh 29.13 in986.5 mb 0.00 in0.0 mm 0.00 in0.0 mm 0.00 in0.0 mm
03:10 AM 8.6°F-13.0°C -13.9°F-25.5°C 34% Calm Calm 1.6 mph2.6 kmh 29.13 in986.5 mb 0.00 in0.0 mm 0.00 in0.0 mm 0.00 in0.0 mm
03:05 AM 8.4°F-13.1°C -14.6°F-25.9°C 33% Calm Calm 2.2 mph3.5 kmh 29.13 in986.5 mb 0.00 in0.0 mm 0.00 in0.0 mm 0.00 in0.0 mm
03:00 AM 8.8°F-12.9°C -14.3°F-25.7°C 33% Calm Calm 3.1 mph5.0 kmh 29.13 in986.5 mb 0.00 in0.0 mm 0.00 in0.0 mm 0.00 in0.0 mm
02:55 AM 8.6°F-13.0°C -14.5°F-25.8°C 33% 0.7 mph ESE1.1 kmh ESE 3.1 mph5.0 kmh 29.13 in986.5 mb 0.00 in0.0 mm 0.00 in0.0 mm 0.00 in0.0 mm
02:50 AM 8.6°F-13.0°C -14.5°F-25.8°C 33% Calm Calm 3.1 mph5.0 kmh 29.13 in986.5 mb 0.00 in0.0 mm 0.00 in0.0 mm 0.00 in0.0 mm
02:45 AM 8.2°F-13.2°C -14.2°F-25.7°C 34% 1.6 mph ESE2.6 kmh ESE 3.1 mph5.0 kmh 29.13 in986.5 mb 0.00 in0.0 mm 0.00 in0.0 mm 0.00 in0.0 mm
02:40 AM 8.2°F-13.2°C -14.2°F-25.7°C 34% 1.6 mph E2.6 kmh E 3.1 mph5.0 kmh 29.14 in986.8 mb 0.00 in0.0 mm 0.00 in0.0 mm 0.00 in0.0 mm
02:35 AM 8.2°F-13.2°C -14.8°F-26.0°C 33% 0.7 mph E1.1 kmh E 3.1 mph5.0 kmh 29.14 in986.8 mb 0.00 in0.0 mm 0.00 in0.0 mm 0.00 in0.0 mm
02:30 AM 8.4°F-13.1°C -14.6°F-25.9°C 33% 1.6 mph E2.6 kmh E 3.8 mph6.1 kmh 29.13 in986.5 mb 0.00 in0.0 mm 0.00 in0.0 mm 0.00 in0.0 mm
02:25 AM 8.2°F-13.2°C -14.8°F-26.0°C 33% 0.7 mph E1.1 kmh E 4.5 mph7.2 kmh 29.13 in986.5 mb 0.00 in0.0 mm 0.00 in0.0 mm 0.00 in0.0 mm
02:20 AM 8.4°F-13.1°C -14.1°F-25.6°C 34% 1.6 mph E2.6 kmh E 4.5 mph7.2 kmh 29.14 in986.8 mb 0.00 in0.0 mm 0.00 in0.0 mm 0.00 in0.0 mm
02:15 AM 8.6°F-13.0°C -14.5°F-25.8°C 33% 2.2 mph E3.5 kmh E 3.8 mph6.1 kmh 29.14 in986.8 mb 0.00 in0.0 mm 0.00 in0.0 mm 0.00 in0.0 mm
02:10 AM 7.9°F-13.4°C -15.1°F-26.2°C 33% 0.7 mph E1.1 kmh E 3.8 mph6.1 kmh 29.14 in986.8 mb 0.00 in0.0 mm 0.00 in0.0 mm 0.00 in0.0 mm
02:05 AM 8.4°F-13.1°C -14.6°F-25.9°C 33% Calm Calm 3.1 mph5.0 kmh 29.14 in986.8 mb 0.00 in0.0 mm 0.00 in0.0 mm 0.00 in0.0 mm
02:00 AM 8.1°F-13.3°C -15.0°F-26.1°C 33% 1.6 mph E2.6 kmh E 3.1 mph5.0 kmh 29.14 in986.8 mb 0.00 in0.0 mm 0.00 in0.0 mm 0.00 in0.0 mm
01:55 AM 9.1°F-12.7°C -14.6°F-25.9°C 32% 1.6 mph E2.6 kmh E 3.1 mph5.0 kmh 29.14 in986.8 mb 0.00 in0.0 mm 0.00 in0.0 mm 0.00 in0.0 mm
01:50 AM 9.1°F-12.7°C -14.0°F-25.6°C 33% 0.7 mph E1.1 kmh E 3.1 mph5.0 kmh 29.14 in986.8 mb 0.00 in0.0 mm 0.00 in0.0 mm 0.00 in0.0 mm
01:45 AM 8.8°F-12.9°C -14.3°F-25.7°C 33% 1.6 mph E2.6 kmh E 3.1 mph5.0 kmh 29.14 in986.8 mb 0.00 in0.0 mm 0.00 in0.0 mm 0.00 in0.0 mm
01:40 AM 8.2°F-13.2°C -14.8°F-26.0°C 33% 1.6 mph ESE2.6 kmh ESE 3.1 mph5.0 kmh 29.14 in986.8 mb 0.00 in0.0 mm 0.00 in0.0 mm 0.00 in0.0 mm
01:35 AM 8.2°F-13.2°C -14.8°F-26.0°C 33% Calm Calm 1.6 mph2.6 kmh 29.14 in986.8 mb 0.00 in0.0 mm 0.00 in0.0 mm 0.00 in0.0 mm
01:30 AM 8.6°F-13.0°C -15.1°F-26.2°C 32% Calm Calm 2.2 mph3.5 kmh 29.14 in986.8 mb 0.00 in0.0 mm 0.00 in0.0 mm 0.00 in0.0 mm
01:25 AM 8.6°F-13.0°C -15.1°F-26.2°C 32% 0.7 mph ESE1.1 kmh ESE 2.2 mph3.5 kmh 29.14 in986.8 mb 0.00 in0.0 mm 0.00 in0.0 mm 0.00 in0.0 mm
01:20 AM 8.6°F-13.0°C -15.1°F-26.2°C 32% 0.7 mph E1.1 kmh E 2.2 mph3.5 kmh 29.15 in987.1 mb 0.00 in0.0 mm 0.00 in0.0 mm 0.00 in0.0 mm
01:15 AM 8.2°F-13.2°C -15.4°F-26.3°C 32% Calm Calm 2.2 mph3.5 kmh 29.14 in986.8 mb 0.00 in0.0 mm 0.00 in0.0 mm 0.00 in0.0 mm
01:10 AM 8.2°F-13.2°C -15.4°F-26.3°C 32% 0.7 mph E1.1 kmh E 2.2 mph3.5 kmh 29.14 in986.8 mb 0.00 in0.0 mm 0.00 in0.0 mm 0.00 in0.0 mm
01:05 AM 9.0°F-12.8°C -15.4°F-26.3°C 31% 0.7 mph E1.1 kmh E 2.2 mph3.5 kmh 29.14 in986.8 mb 0.00 in0.0 mm 0.00 in0.0 mm 0.00 in0.0 mm
01:00 AM 9.0°F-12.8°C -16.0°F-26.7°C 30% Calm Calm 2.2 mph3.5 kmh 29.14 in986.8 mb 0.00 in0.0 mm 0.00 in0.0 mm 0.00 in0.0 mm
12:55 AM 9.0°F-12.8°C -16.0°F-26.7°C 30% 0.7 mph E1.1 kmh E 3.1 mph5.0 kmh 29.14 in986.8 mb 0.00 in0.0 mm 0.00 in0.0 mm 0.00 in0.0 mm
12:50 AM 8.8°F-12.9°C -16.2°F-26.8°C 30% 0.7 mph E1.1 kmh E 3.1 mph5.0 kmh 29.14 in986.8 mb 0.00 in0.0 mm 0.00 in0.0 mm 0.00 in0.0 mm
12:45 AM 9.1°F-12.7°C -15.9°F-26.6°C 30% Calm Calm 3.1 mph5.0 kmh 29.15 in987.1 mb 0.00 in0.0 mm 0.00 in0.0 mm 0.00 in0.0 mm
12:40 AM 9.7°F-12.4°C -15.4°F-26.3°C 30% Calm Calm 3.1 mph5.0 kmh 29.15 in987.1 mb 0.00 in0.0 mm 0.00 in0.0 mm 0.00 in0.0 mm
12:35 AM 9.7°F-12.4°C -15.4°F-26.3°C 30% 1.6 mph E2.6 kmh E 3.1 mph5.0 kmh 29.15 in987.1 mb 0.00 in0.0 mm 0.00 in0.0 mm 0.00 in0.0 mm
12:30 AM 9.0°F-12.8°C -16.0°F-26.7°C 30% 1.6 mph E2.6 kmh E 3.8 mph6.1 kmh 29.15 in987.1 mb 0.00 in0.0 mm 0.00 in0.0 mm 0.00 in0.0 mm
12:25 AM 9.5°F-12.5°C -15.6°F-26.4°C 30% 0.7 mph E1.1 kmh E 3.8 mph6.1 kmh 29.14 in986.8 mb 0.00 in0.0 mm 0.00 in0.0 mm 0.00 in0.0 mm
12:20 AM 9.3°F-12.6°C -15.7°F-26.5°C 30% 1.6 mph E2.6 kmh E 3.8 mph6.1 kmh 29.15 in987.1 mb 0.00 in0.0 mm 0.00 in0.0 mm 0.00 in0.0 mm
12:15 AM 9.5°F-12.5°C -16.2°F-26.8°C 29% 1.6 mph E2.6 kmh E 3.1 mph5.0 kmh 29.15 in987.1 mb 0.00 in0.0 mm 0.00 in0.0 mm 0.00 in0.0 mm
12:10 AM 9.7°F-12.4°C -16.1°F-26.7°C 29% 0.7 mph E1.1 kmh E 3.1 mph5.0 kmh 29.15 in987.1 mb 0.00 in0.0 mm 0.00 in0.0 mm 0.00 in0.0 mm
12:05 AM 9.9°F-12.3°C -15.9°F-26.6°C 29% 2.2 mph E3.5 kmh E 3.8 mph6.1 kmh 29.15 in987.1 mb 0.00 in0.0 mm 0.00 in0.0 mm 0.00 in0.0 mm
12:00 AM 10.2°F-12.1°C -16.3°F-26.8°C 28% 0.7 mph E1.1 kmh E 3.8 mph6.1 kmh 29.15 in987.1 mb 0.00 in0.0 mm 0.00 in0.0 mm 0.00 in0.0 mm